createdAt,value
2022-10-24T00:00:50.820Z,2.97
2022-10-24T00:03:17.036Z,3.50
2022-10-24T00:05:44.655Z,2.80
2022-10-24T00:08:11.162Z,2.67
2022-10-24T00:10:40.436Z,2.90
2022-10-24T00:13:07.254Z,4.67
2022-10-24T00:15:34.072Z,3.70
2022-10-24T00:18:00.222Z,3.23
2022-10-24T00:20:26.375Z,3.47
2022-10-24T00:22:52.548Z,3.37
2022-10-24T00:25:18.903Z,3.40
2022-10-24T00:27:45.239Z,3.20
2022-10-24T00:30:12.333Z,3.00
2022-10-24T00:32:39.133Z,3.67
2022-10-24T00:35:06.209Z,3.77
2022-10-24T00:37:32.378Z,3.10
2022-10-24T00:39:58.549Z,3.40
2022-10-24T00:42:24.701Z,3.37
2022-10-24T00:44:52.803Z,3.27
2022-10-24T00:47:20.444Z,3.37
2022-10-24T00:49:50.402Z,3.30
2022-10-24T00:52:20.728Z,2.70
2022-10-24T00:54:47.363Z,3.57
2022-10-24T00:57:16.608Z,3.50
2022-10-24T00:59:43.297Z,2.93
2022-10-24T01:02:09.668Z,3.20
2022-10-24T01:04:35.938Z,3.33
2022-10-24T01:07:15.428Z,2.80
2022-10-24T01:10:01.628Z,3.13
2022-10-24T01:12:32.191Z,3.00
2022-10-24T01:15:04.115Z,2.77
2022-10-24T01:17:35.205Z,2.90
2022-10-24T01:20:20.803Z,3.03
2022-10-24T01:22:57.738Z,3.20
2022-10-24T01:25:31.615Z,3.13
2022-10-24T01:28:02.839Z,3.40
2022-10-24T01:30:33.654Z,3.00
2022-10-24T01:33:03.995Z,2.97
2022-10-24T01:35:36.591Z,3.37
2022-10-24T01:38:08.920Z,3.33
2022-10-24T01:40:40.325Z,3.17
2022-10-24T01:43:10.598Z,3.00
2022-10-24T01:45:40.769Z,2.90
2022-10-24T01:48:09.936Z,3.17
2022-10-24T01:50:37.488Z,3.07
2022-10-24T01:53:04.416Z,3.30
2022-10-24T01:55:31.001Z,3.37
2022-10-24T01:57:57.169Z,3.53
2022-10-24T02:00:23.839Z,3.10
2022-10-24T02:02:52.729Z,2.90
2022-10-24T02:05:21.290Z,2.87
2022-10-24T02:07:49.918Z,3.23
2022-10-24T02:10:19.676Z,3.30
2022-10-24T02:12:50.036Z,2.73
2022-10-24T02:15:22.009Z,2.97
2022-10-24T02:17:48.284Z,3.17
2022-10-24T02:20:15.242Z,3.73
2022-10-24T02:22:45.665Z,2.90
2022-10-24T02:25:17.557Z,2.93
2022-10-24T02:27:47.153Z,3.10
2022-10-24T02:30:16.080Z,4.43
2022-10-24T02:32:43.694Z,2.93
2022-10-24T02:35:11.386Z,2.90
2022-10-24T02:37:40.404Z,3.33
2022-10-24T02:40:08.588Z,3.63
2022-10-24T02:42:35.620Z,3.23
2022-10-24T02:45:02.884Z,2.90
2022-10-24T02:47:29.377Z,2.90
2022-10-24T02:49:55.753Z,3.33
2022-10-24T02:52:22.818Z,3.33
2022-10-24T02:54:49.748Z,2.73
2022-10-24T02:57:15.982Z,2.73
2022-10-24T02:59:42.129Z,3.03
2022-10-24T03:02:08.358Z,3.50
2022-10-24T03:04:34.581Z,3.47
2022-10-24T03:07:00.793Z,3.10
2022-10-24T03:09:26.923Z,2.80
2022-10-24T03:11:53.693Z,2.23
2022-10-24T03:14:19.882Z,2.80
2022-10-24T03:16:46.049Z,2.97
2022-10-24T03:19:12.247Z,4.10
2022-10-24T03:21:39.349Z,3.13
2022-10-24T03:26:32.315Z,3.00
2022-10-24T03:28:59.129Z,3.70
2022-10-24T03:31:25.510Z,2.70
2022-10-24T03:33:51.698Z,3.23
2022-10-24T03:36:18.111Z,2.70
2022-10-24T03:38:44.292Z,2.80
2022-10-24T03:41:10.557Z,3.07
2022-10-24T03:43:36.715Z,3.10
2022-10-24T03:46:03.618Z,3.17
2022-10-24T03:48:29.804Z,3.07
2022-10-24T03:50:55.974Z,2.90
2022-10-24T03:53:22.159Z,3.10
2022-10-24T03:55:48.357Z,3.23
2022-10-24T03:58:14.481Z,2.80
2022-10-24T04:00:41.789Z,3.13
2022-10-24T04:03:10.033Z,2.40
2022-10-24T04:05:36.761Z,2.90
2022-10-24T04:08:03.414Z,3.10
2022-10-24T04:10:29.569Z,2.83
2022-10-24T04:12:55.702Z,2.40
2022-10-24T04:15:21.949Z,2.70
2022-10-24T04:17:48.178Z,3.10
2022-10-24T04:20:18.845Z,2.87
2022-10-24T04:22:45.343Z,3.00
2022-10-24T04:25:11.723Z,2.90
2022-10-24T04:27:39.901Z,2.57
2022-10-24T04:30:07.625Z,2.27
2022-10-24T04:32:33.808Z,2.60
2022-10-24T04:35:00.998Z,2.87
2022-10-24T04:37:27.948Z,2.90
2022-10-24T04:39:54.514Z,2.90
2022-10-24T04:42:20.734Z,2.77
2022-10-24T04:44:46.888Z,2.93
2022-10-24T04:47:13.049Z,2.87
2022-10-24T04:49:39.261Z,2.47
2022-10-24T04:52:05.461Z,2.57
2022-10-24T04:54:32.330Z,2.40
2022-10-24T04:56:58.502Z,2.97
2022-10-24T04:59:24.646Z,2.50
2022-10-24T05:01:50.887Z,2.70
2022-10-24T05:04:17.167Z,2.17
2022-10-24T05:06:45.056Z,3.17
2022-10-24T05:09:11.609Z,2.53
2022-10-24T05:11:38.484Z,2.50
2022-10-24T05:14:04.605Z,2.50
2022-10-24T05:16:30.805Z,2.00
2022-10-24T05:18:57.030Z,2.90
2022-10-24T05:21:23.245Z,2.30
2022-10-24T05:23:49.412Z,2.40
2022-10-24T05:26:15.691Z,2.17
2022-10-24T05:28:42.573Z,2.67
2022-10-24T05:31:08.753Z,2.20
2022-10-24T05:33:34.894Z,2.43
2022-10-24T05:36:01.041Z,2.10
2022-10-24T05:38:27.230Z,2.50
2022-10-24T05:40:53.511Z,2.40
2022-10-24T05:43:19.759Z,2.10
2022-10-24T05:45:48.152Z,2.00
2022-10-24T05:48:14.684Z,2.27
2022-10-24T05:50:41.157Z,2.00
2022-10-24T05:53:08.041Z,2.50
2022-10-24T05:55:34.247Z,2.10
2022-10-24T05:58:00.454Z,2.30
2022-10-24T06:00:26.621Z,1.90
2022-10-24T06:02:53.478Z,2.20
2022-10-24T06:05:20.079Z,2.17
2022-10-24T06:07:46.954Z,1.90
2022-10-24T06:10:14.085Z,2.30
2022-10-24T06:12:40.645Z,2.20
2022-10-24T06:15:08.941Z,2.17
2022-10-24T06:17:35.417Z,2.00
2022-10-24T06:20:02.579Z,2.20
2022-10-24T06:22:29.013Z,2.30
2022-10-24T06:24:55.597Z,2.53
2022-10-24T06:27:21.777Z,2.00
2022-10-24T06:29:47.964Z,2.33
2022-10-24T06:32:14.161Z,2.00
2022-10-24T06:34:40.333Z,2.33
2022-10-24T06:37:07.133Z,2.40
2022-10-24T06:39:33.309Z,1.93
2022-10-24T06:42:00.544Z,2.10
2022-10-24T06:44:27.158Z,1.97
2022-10-24T06:46:53.298Z,2.23
2022-10-24T06:49:19.827Z,1.97
2022-10-24T06:51:45.997Z,2.07
2022-10-24T06:54:13.064Z,1.97
2022-10-24T06:56:39.346Z,2.20
2022-10-24T06:59:08.526Z,2.37
2022-10-24T07:01:35.255Z,1.93
2022-10-24T07:04:01.518Z,1.80
2022-10-24T07:06:29.145Z,2.03
2022-10-24T07:08:57.703Z,2.30
2022-10-24T07:11:24.951Z,1.90
2022-10-24T07:13:51.506Z,2.27
2022-10-24T07:16:18.851Z,2.43
2022-10-24T07:18:45.494Z,1.73
2022-10-24T07:21:14.327Z,2.10
2022-10-24T07:23:40.654Z,2.20
2022-10-24T07:26:08.099Z,2.40
2022-10-24T07:28:35.405Z,1.70
2022-10-24T07:31:01.829Z,1.80
2022-10-24T07:33:28.457Z,1.83
2022-10-24T07:35:54.735Z,1.63
2022-10-24T07:38:21.250Z,1.80
2022-10-24T07:40:47.744Z,1.83
2022-10-24T07:43:14.141Z,1.87
2022-10-24T07:45:41.084Z,1.77
2022-10-24T07:48:07.266Z,1.87
2022-10-24T07:50:34.134Z,1.90
2022-10-24T07:53:00.348Z,1.40
2022-10-24T07:55:26.563Z,1.63
2022-10-24T07:57:52.707Z,1.60
2022-10-24T08:00:19.233Z,1.40
2022-10-24T08:02:46.353Z,1.40
2022-10-24T08:05:12.760Z,1.47
2022-10-24T08:07:38.993Z,1.40
2022-10-24T08:10:08.427Z,1.20
2022-10-24T08:12:34.662Z,1.67
2022-10-24T08:15:00.804Z,1.50
2022-10-24T08:17:26.977Z,1.40
2022-10-24T08:19:54.050Z,1.50
2022-10-24T08:22:20.178Z,1.53
2022-10-24T08:24:46.289Z,2.10
2022-10-24T08:27:12.644Z,2.03
2022-10-24T08:29:38.973Z,1.33
2022-10-24T08:32:06.069Z,1.50
2022-10-24T08:34:32.277Z,1.57
2022-10-24T08:36:59.178Z,1.50
2022-10-24T08:39:26.246Z,1.50
2022-10-24T08:41:57.895Z,1.37
2022-10-24T08:44:28.106Z,1.30
2022-10-24T08:46:56.815Z,2.37
2022-10-24T08:49:27.916Z,1.27
2022-10-24T08:51:57.303Z,1.70
2022-10-24T08:54:28.390Z,1.60
2022-10-24T08:56:57.155Z,1.50
2022-10-24T08:59:25.170Z,1.60
2022-10-24T09:01:59.258Z,1.53
2022-10-24T09:04:33.825Z,1.50
2022-10-24T09:07:00.826Z,1.50
2022-10-24T09:09:30.720Z,1.87
2022-10-24T09:12:00.112Z,1.80
2022-10-24T09:14:28.525Z,1.63
2022-10-24T09:16:57.610Z,1.47
2022-10-24T09:19:26.515Z,1.50
2022-10-24T09:21:53.465Z,2.03
2022-10-24T09:24:30.926Z,1.50
2022-10-24T09:26:59.694Z,1.90
2022-10-24T09:29:27.730Z,2.53
2022-10-24T09:31:53.918Z,2.60
2022-10-24T09:34:20.124Z,2.00
2022-10-24T09:36:46.373Z,1.90
2022-10-24T09:39:26.734Z,3.10
2022-10-24T09:41:53.593Z,6.80
2022-10-24T09:44:32.381Z,3.17
2022-10-24T09:46:58.585Z,8.13
2022-10-24T09:49:31.243Z,2.27
2022-10-24T09:52:01.993Z,2.30
2022-10-24T09:54:29.722Z,2.20
2022-10-24T09:56:58.522Z,2.37
2022-10-24T09:59:36.644Z,1.63
2022-10-24T10:02:18.592Z,2.97
2022-10-24T10:04:45.479Z,1.70
2022-10-24T10:07:13.511Z,1.97
2022-10-24T10:09:50.576Z,2.27
2022-10-24T10:12:31.331Z,2.37
2022-10-24T10:14:57.779Z,2.17
2022-10-24T10:17:25.932Z,1.70
2022-10-24T10:19:52.349Z,1.87
2022-10-24T10:22:24.870Z,1.80
2022-10-24T10:24:51.036Z,1.97
2022-10-24T10:27:33.683Z,2.27
2022-10-24T10:30:15.834Z,2.67
2022-10-24T10:32:47.957Z,1.90
2022-10-24T10:35:17.616Z,2.20
2022-10-24T10:37:48.416Z,2.00
2022-10-24T10:40:26.021Z,2.20
2022-10-24T10:43:12.691Z,1.53
2022-10-24T10:45:41.674Z,2.30
2022-10-24T10:48:17.616Z,1.97
2022-10-24T10:50:50.325Z,1.93
2022-10-24T10:53:30.216Z,2.07
2022-10-24T10:56:00.588Z,2.20
2022-10-24T10:58:34.948Z,2.10
2022-10-24T11:01:09.020Z,1.70
2022-10-24T11:03:38.262Z,1.67
2022-10-24T11:06:14.455Z,2.10
2022-10-24T11:09:01.083Z,1.73
2022-10-24T11:11:29.655Z,2.57
2022-10-24T11:14:00.166Z,2.20
2022-10-24T11:16:27.939Z,2.07
2022-10-24T11:18:59.152Z,1.83
2022-10-24T11:21:26.626Z,2.23
2022-10-24T11:23:54.466Z,1.87
2022-10-24T11:26:26.347Z,1.83
2022-10-24T11:28:56.857Z,1.97
2022-10-24T11:31:25.920Z,2.30
2022-10-24T11:33:55.760Z,2.50
2022-10-24T11:36:25.920Z,1.60
2022-10-24T11:38:55.648Z,1.70
2022-10-24T11:41:43.076Z,2.10
2022-10-24T11:44:25.320Z,1.73
2022-10-24T11:46:55.826Z,1.87
2022-10-24T11:49:24.031Z,2.00
2022-10-24T11:51:55.400Z,1.90
2022-10-24T11:54:25.009Z,2.03
2022-10-24T11:56:53.396Z,2.10
2022-10-24T11:59:23.433Z,1.87
2022-10-24T12:02:15.237Z,1.60
2022-10-24T12:04:54.189Z,1.67
2022-10-24T12:07:52.309Z,1.80
2022-10-24T12:10:29.450Z,1.87
2022-10-24T12:13:23.418Z,1.87
2022-10-24T12:15:55.190Z,3.00
2022-10-24T12:18:27.298Z,1.93
2022-10-24T12:20:55.328Z,2.40
2022-10-24T12:23:23.848Z,1.83
2022-10-24T12:26:02.209Z,2.30
2022-10-24T12:28:28.426Z,1.80
2022-10-24T12:31:09.987Z,1.80
2022-10-24T12:33:36.201Z,1.90
2022-10-24T12:36:02.583Z,2.37
2022-10-24T12:39:02.169Z,2.23
2022-10-24T12:41:41.742Z,2.00
2022-10-24T12:44:50.028Z,2.13
2022-10-24T12:47:41.013Z,2.37
2022-10-24T12:50:44.487Z,2.23
2022-10-24T12:53:37.020Z,2.03
2022-10-24T12:56:09.350Z,2.17
2022-10-24T12:58:36.679Z,1.70
2022-10-24T13:01:04.863Z,1.80
2022-10-24T13:03:44.943Z,2.30
2022-10-24T13:06:14.372Z,1.70
2022-10-24T13:08:49.316Z,2.00
2022-10-24T13:11:28.585Z,1.60
2022-10-24T13:14:22.275Z,1.97
2022-10-24T13:16:58.169Z,1.90
2022-10-24T13:19:26.033Z,1.90
2022-10-24T13:21:54.079Z,2.17
2022-10-24T13:24:33.185Z,2.00
2022-10-24T13:27:22.134Z,1.70
2022-10-24T13:30:23.361Z,1.80
2022-10-24T13:32:49.526Z,1.80
2022-10-24T13:35:20.454Z,1.37
2022-10-24T13:37:49.750Z,1.80
2022-10-24T13:40:24.172Z,1.73
2022-10-24T13:42:53.072Z,2.10
2022-10-24T13:45:23.329Z,1.77
2022-10-24T13:47:51.739Z,2.53
2022-10-24T13:50:21.012Z,1.67
2022-10-24T13:52:49.779Z,1.80
2022-10-24T13:55:23.452Z,1.67
2022-10-24T13:57:52.560Z,1.90
2022-10-24T14:00:21.544Z,2.20
2022-10-24T14:02:48.002Z,1.93
2022-10-24T14:05:29.257Z,2.03
2022-10-24T14:07:56.092Z,1.80
2022-10-24T14:10:22.518Z,1.70
2022-10-24T14:12:51.159Z,1.80
2022-10-24T14:15:19.430Z,1.80
2022-10-24T14:17:57.338Z,2.10
2022-10-24T14:20:25.380Z,1.57
2022-10-24T14:22:51.536Z,1.43
2022-10-24T14:25:24.135Z,1.80
2022-10-24T14:27:51.211Z,1.70
2022-10-24T14:30:19.213Z,2.50
2022-10-24T14:32:45.386Z,1.40
2022-10-24T14:35:12.026Z,1.80
2022-10-24T14:37:39.968Z,1.90
2022-10-24T14:40:14.683Z,2.03
2022-10-24T14:42:40.952Z,1.80
2022-10-24T14:45:21.578Z,1.53
2022-10-24T14:47:50.324Z,1.77
2022-10-24T14:50:35.461Z,1.63
2022-10-24T14:53:03.596Z,2.40
2022-10-24T14:55:29.880Z,2.97
2022-10-24T14:57:56.523Z,2.27
2022-10-24T15:00:24.787Z,2.00
2022-10-24T15:02:52.304Z,1.90
2022-10-24T15:05:29.466Z,2.20
2022-10-24T15:08:22.081Z,2.03
2022-10-24T15:10:48.345Z,1.90
2022-10-24T15:13:16.994Z,2.00
2022-10-24T15:15:49.821Z,1.60
2022-10-24T15:18:19.330Z,1.90
2022-10-24T15:20:46.979Z,2.13
2022-10-24T15:23:20.171Z,1.67
2022-10-24T15:25:46.666Z,1.87
2022-10-24T15:28:35.577Z,1.90
2022-10-24T15:31:01.697Z,2.03
2022-10-24T15:33:27.849Z,2.00
2022-10-24T15:35:54.019Z,1.87
2022-10-24T15:38:20.187Z,1.90
2022-10-24T15:40:47.585Z,1.90
2022-10-24T15:43:16.294Z,2.10
2022-10-24T15:45:44.045Z,2.20
2022-10-24T15:48:10.265Z,2.20
2022-10-24T15:50:37.055Z,2.00
2022-10-24T15:53:04.641Z,2.10
2022-10-24T15:55:31.712Z,1.90
2022-10-24T15:57:59.100Z,1.70
2022-10-24T16:00:25.753Z,1.90
2022-10-24T16:02:55.156Z,1.97
2022-10-24T16:05:23.023Z,1.80
2022-10-24T16:07:51.262Z,2.10
2022-10-24T16:10:18.982Z,2.20
2022-10-24T16:12:45.486Z,2.13
2022-10-24T16:15:18.458Z,1.93
2022-10-24T16:17:44.877Z,2.77
2022-10-24T16:20:12.164Z,2.03
2022-10-24T16:22:39.308Z,2.20
2022-10-24T16:25:05.967Z,2.33
2022-10-24T16:27:32.112Z,2.30
2022-10-24T16:29:58.289Z,2.47
2022-10-24T16:32:24.420Z,2.10
2022-10-24T16:34:51.648Z,1.90
2022-10-24T16:37:19.539Z,2.17
2022-10-24T16:39:45.751Z,1.93
2022-10-24T16:42:11.862Z,1.87
2022-10-24T16:44:38.031Z,2.10
2022-10-24T16:47:04.373Z,2.27
2022-10-24T16:49:30.666Z,2.23
2022-10-24T16:51:57.230Z,1.70
2022-10-24T16:54:24.409Z,2.10
2022-10-24T16:56:53.834Z,1.83
2022-10-24T16:59:20.424Z,1.90
2022-10-24T17:01:46.673Z,2.27
2022-10-24T17:04:12.828Z,2.63
2022-10-24T17:06:39.007Z,2.27
2022-10-24T17:09:05.169Z,2.10
2022-10-24T17:11:44.976Z,2.10
2022-10-24T17:14:13.259Z,1.90
2022-10-24T17:16:39.566Z,2.30
2022-10-24T17:19:15.684Z,2.07
2022-10-24T17:21:43.020Z,1.87
2022-10-24T17:24:10.418Z,2.00
2022-10-24T17:26:37.475Z,1.90
2022-10-24T17:29:04.187Z,1.83
2022-10-24T17:31:30.926Z,1.80
2022-10-24T17:33:57.481Z,1.93
2022-10-24T17:36:27.145Z,2.20
2022-10-24T17:38:57.005Z,2.03
2022-10-24T17:41:25.715Z,2.00
2022-10-24T17:43:53.977Z,2.43
2022-10-24T17:46:20.937Z,1.27
2022-10-24T17:48:47.321Z,1.10
2022-10-24T17:51:22.545Z,1.93
2022-10-24T17:53:48.884Z,1.43
2022-10-24T17:56:15.132Z,1.23
2022-10-24T17:58:41.480Z,1.90
2022-10-24T18:01:09.895Z,1.53
2022-10-24T18:03:36.914Z,1.70
2022-10-24T18:06:05.882Z,1.70
2022-10-24T18:08:32.554Z,1.83
2022-10-24T18:11:00.590Z,1.80
2022-10-24T18:13:26.774Z,2.40
2022-10-24T18:15:53.444Z,1.70
2022-10-24T18:18:21.477Z,2.03
2022-10-24T18:20:47.856Z,2.43
2022-10-24T18:23:14.344Z,1.80
2022-10-24T18:25:40.853Z,2.10
2022-10-24T18:28:07.179Z,1.60
2022-10-24T18:30:34.890Z,1.50
2022-10-24T18:33:01.170Z,1.63
2022-10-24T18:35:32.261Z,2.40
2022-10-24T18:37:58.405Z,2.30
2022-10-24T18:40:24.857Z,1.60
2022-10-24T18:42:53.916Z,2.10
2022-10-24T18:45:21.865Z,1.87
2022-10-24T18:47:48.964Z,1.70
2022-10-24T18:50:17.613Z,1.47
2022-10-24T18:52:48.551Z,1.93
2022-10-24T18:55:17.593Z,1.80
2022-10-24T18:57:44.553Z,1.70
2022-10-24T19:00:14.313Z,1.80
2022-10-24T19:02:48.005Z,2.30
2022-10-24T19:05:16.814Z,2.20
2022-10-24T19:07:43.621Z,1.70
2022-10-24T19:10:17.118Z,2.00
2022-10-24T19:12:43.621Z,2.00
2022-10-24T19:15:11.362Z,2.07
2022-10-24T19:17:37.634Z,2.03
2022-10-24T19:20:04.784Z,1.77
2022-10-24T19:22:30.916Z,2.30
2022-10-24T19:24:57.158Z,2.37
2022-10-24T19:27:24.037Z,1.70
2022-10-24T19:29:50.445Z,2.00
2022-10-24T19:32:16.823Z,1.77
2022-10-24T19:34:43.089Z,1.77
2022-10-24T19:37:10.831Z,2.00
2022-10-24T19:39:37.094Z,1.80
2022-10-24T19:42:03.572Z,1.87
2022-10-24T19:44:30.429Z,2.50
2022-10-24T19:46:56.680Z,2.57
2022-10-24T19:49:22.862Z,2.97
2022-10-24T19:51:50.481Z,2.07
2022-10-24T19:54:16.600Z,2.10
2022-10-24T19:56:42.869Z,2.57
2022-10-24T19:59:11.429Z,2.43
2022-10-24T20:01:38.495Z,2.20
2022-10-24T20:04:05.046Z,2.37
2022-10-24T20:06:31.521Z,2.90
2022-10-24T20:08:57.692Z,2.70
2022-10-24T20:11:23.909Z,2.43
2022-10-24T20:13:50.144Z,2.03
2022-10-24T20:16:16.361Z,2.50
2022-10-24T20:18:43.570Z,2.40
2022-10-24T20:21:11.926Z,2.70
2022-10-24T20:23:39.429Z,2.57
2022-10-24T20:26:07.373Z,2.50
2022-10-24T20:28:34.004Z,2.83
2022-10-24T20:31:00.445Z,2.73
2022-10-24T20:33:26.636Z,2.90
2022-10-24T20:35:57.677Z,3.17
2022-10-24T20:38:23.879Z,3.07
2022-10-24T20:40:50.089Z,2.83
2022-10-24T20:43:16.452Z,3.10
2022-10-24T20:45:42.790Z,3.47
2022-10-24T20:48:09.986Z,2.93
2022-10-24T20:50:36.214Z,2.60
2022-10-24T20:53:03.354Z,2.63
2022-10-24T20:55:43.695Z,2.70
2022-10-24T20:58:11.172Z,2.67
2022-10-24T21:00:37.423Z,2.23
2022-10-24T21:03:03.857Z,2.00
2022-10-24T21:05:30.004Z,2.83
2022-10-24T21:07:56.121Z,1.60
2022-10-24T21:10:22.924Z,1.70
2022-10-24T21:12:49.603Z,1.63
2022-10-24T21:15:15.933Z,1.07
2022-10-24T21:17:42.154Z,1.20
2022-10-24T21:20:09.298Z,1.60
2022-10-24T21:22:35.456Z,1.23
2022-10-24T21:25:01.664Z,1.47
2022-10-24T21:27:28.565Z,1.80
2022-10-24T21:29:54.790Z,1.50
2022-10-24T21:32:21.077Z,1.87
2022-10-24T21:34:47.237Z,1.90
2022-10-24T21:37:13.376Z,1.73
2022-10-24T21:39:39.476Z,1.97
2022-10-24T21:42:05.655Z,1.70
2022-10-24T21:44:33.512Z,2.37
2022-10-24T21:46:59.697Z,1.77
2022-10-24T21:49:26.083Z,1.63
2022-10-24T21:51:52.266Z,1.97
2022-10-24T21:54:19.803Z,1.70
2022-10-24T21:56:46.053Z,1.83
2022-10-24T21:59:14.411Z,1.67
2022-10-24T22:01:42.237Z,1.57
2022-10-24T22:04:09.881Z,1.60
2022-10-24T22:06:36.130Z,1.40
2022-10-24T22:09:03.030Z,1.80
2022-10-24T22:11:30.430Z,1.80
2022-10-24T22:13:56.983Z,2.00
2022-10-24T22:16:25.101Z,1.67
2022-10-24T22:18:52.045Z,2.13
2022-10-24T22:21:23.129Z,2.17
2022-10-24T22:23:49.261Z,1.70
2022-10-24T22:26:15.562Z,2.03
2022-10-24T22:28:41.654Z,2.17
2022-10-24T22:31:08.977Z,2.47
2022-10-24T22:33:36.807Z,2.43
2022-10-24T22:36:07.189Z,2.40
2022-10-24T22:38:33.688Z,2.10
2022-10-24T22:41:00.366Z,2.30
2022-10-24T22:43:27.131Z,2.60
2022-10-24T22:45:59.841Z,2.37
2022-10-24T22:48:29.126Z,2.50
2022-10-24T22:50:56.278Z,2.60
2022-10-24T22:53:25.040Z,2.90
2022-10-24T22:56:02.569Z,3.47
2022-10-24T22:58:29.226Z,2.50
2022-10-24T23:00:59.525Z,2.60
2022-10-24T23:03:33.317Z,2.90
2022-10-24T23:06:02.407Z,2.67
2022-10-24T23:08:32.233Z,2.60
2022-10-24T23:10:58.852Z,2.87
2022-10-24T23:13:25.477Z,2.97
2022-10-24T23:15:53.699Z,2.67
2022-10-24T23:18:20.448Z,2.63
2022-10-24T23:20:51.106Z,2.63
2022-10-24T23:23:28.635Z,2.50
2022-10-24T23:26:01.781Z,2.67
2022-10-24T23:28:30.472Z,2.57
2022-10-24T23:30:57.148Z,2.60
2022-10-24T23:33:26.558Z,3.27
2022-10-24T23:35:56.578Z,2.53
2022-10-24T23:38:24.240Z,2.63
2022-10-24T23:40:51.184Z,3.27
2022-10-24T23:43:20.621Z,2.67
2022-10-24T23:45:49.570Z,2.80
2022-10-24T23:48:25.540Z,2.60
2022-10-24T23:50:55.454Z,2.43
2022-10-24T23:53:30.612Z,2.90
2022-10-24T23:55:57.312Z,2.73
2022-10-24T23:58:24.161Z,3.03
